sensor_id;sensor_type;location;lat;lon;timestamp;P1;durP1;ratioP1;P2;durP2;ratioP2
20870;SDS011;10595;51.218;3.452;2023-07-13T00:01:27;12.23;;;3.20;;
20870;SDS011;10595;51.218;3.452;2023-07-13T00:03:54;14.10;;;3.10;;
20870;SDS011;10595;51.218;3.452;2023-07-13T00:06:20;9.97;;;3.17;;
20870;SDS011;10595;51.218;3.452;2023-07-13T00:08:47;16.83;;;3.30;;
20870;SDS011;10595;51.218;3.452;2023-07-13T00:11:14;17.00;;;3.87;;
20870;SDS011;10595;51.218;3.452;2023-07-13T00:13:40;8.13;;;3.17;;
20870;SDS011;10595;51.218;3.452;2023-07-13T00:16:07;13.53;;;2.83;;
20870;SDS011;10595;51.218;3.452;2023-07-13T00:18:34;11.07;;;3.17;;
20870;SDS011;10595;51.218;3.452;2023-07-13T00:21:00;18.27;;;3.60;;
20870;SDS011;10595;51.218;3.452;2023-07-13T00:23:30;9.93;;;3.10;;
20870;SDS011;10595;51.218;3.452;2023-07-13T00:25:55;14.73;;;3.20;;
20870;SDS011;10595;51.218;3.452;2023-07-13T00:28:22;12.43;;;3.37;;
20870;SDS011;10595;51.218;3.452;2023-07-13T00:30:48;13.23;;;3.30;;
20870;SDS011;10595;51.218;3.452;2023-07-13T00:33:14;13.93;;;3.90;;
20870;SDS011;10595;51.218;3.452;2023-07-13T00:35:40;18.30;;;3.77;;
20870;SDS011;10595;51.218;3.452;2023-07-13T00:38:08;14.73;;;3.70;;
20870;SDS011;10595;51.218;3.452;2023-07-13T00:40:35;13.33;;;3.37;;
20870;SDS011;10595;51.218;3.452;2023-07-13T00:43:01;13.43;;;3.87;;
20870;SDS011;10595;51.218;3.452;2023-07-13T00:47:53;15.57;;;3.63;;
20870;SDS011;10595;51.218;3.452;2023-07-13T00:50:21;13.00;;;3.73;;
20870;SDS011;10595;51.218;3.452;2023-07-13T00:52:53;9.77;;;3.13;;
20870;SDS011;10595;51.218;3.452;2023-07-13T00:55:20;15.73;;;3.47;;
20870;SDS011;10595;51.218;3.452;2023-07-13T00:57:47;10.10;;;3.60;;
20870;SDS011;10595;51.218;3.452;2023-07-13T01:00:14;15.33;;;3.40;;
20870;SDS011;10595;51.218;3.452;2023-07-13T01:02:42;13.50;;;3.50;;
20870;SDS011;10595;51.218;3.452;2023-07-13T01:05:10;11.23;;;3.40;;
20870;SDS011;10595;51.218;3.452;2023-07-13T01:07:36;17.67;;;4.30;;
20870;SDS011;10595;51.218;3.452;2023-07-13T01:10:02;17.30;;;3.63;;
20870;SDS011;10595;51.218;3.452;2023-07-13T01:12:28;16.90;;;4.43;;
20870;SDS011;10595;51.218;3.452;2023-07-13T01:14:59;15.00;;;3.63;;
20870;SDS011;10595;51.218;3.452;2023-07-13T01:17:25;20.47;;;4.07;;
20870;SDS011;10595;51.218;3.452;2023-07-13T01:19:51;17.73;;;4.50;;
20870;SDS011;10595;51.218;3.452;2023-07-13T01:22:18;14.13;;;3.37;;
20870;SDS011;10595;51.218;3.452;2023-07-13T01:24:46;15.53;;;4.23;;
20870;SDS011;10595;51.218;3.452;2023-07-13T01:27:15;15.30;;;3.97;;
20870;SDS011;10595;51.218;3.452;2023-07-13T01:29:43;16.50;;;5.13;;
20870;SDS011;10595;51.218;3.452;2023-07-13T01:32:10;18.53;;;4.13;;
20870;SDS011;10595;51.218;3.452;2023-07-13T01:34:36;13.87;;;4.17;;
20870;SDS011;10595;51.218;3.452;2023-07-13T01:37:03;15.13;;;4.20;;
20870;SDS011;10595;51.218;3.452;2023-07-13T01:39:29;21.13;;;4.77;;
20870;SDS011;10595;51.218;3.452;2023-07-13T01:41:56;22.63;;;4.87;;
20870;SDS011;10595;51.218;3.452;2023-07-13T01:44:22;16.70;;;4.20;;
20870;SDS011;10595;51.218;3.452;2023-07-13T01:46:48;20.63;;;5.20;;
20870;SDS011;10595;51.218;3.452;2023-07-13T01:49:14;20.07;;;4.73;;
20870;SDS011;10595;51.218;3.452;2023-07-13T01:51:41;22.87;;;5.20;;
20870;SDS011;10595;51.218;3.452;2023-07-13T01:54:07;17.47;;;4.70;;
20870;SDS011;10595;51.218;3.452;2023-07-13T01:56:33;22.93;;;6.07;;
20870;SDS011;10595;51.218;3.452;2023-07-13T01:58:59;17.50;;;4.70;;
20870;SDS011;10595;51.218;3.452;2023-07-13T02:01:25;16.47;;;4.97;;
20870;SDS011;10595;51.218;3.452;2023-07-13T02:03:51;13.00;;;4.60;;
20870;SDS011;10595;51.218;3.452;2023-07-13T02:06:17;18.33;;;5.47;;
20870;SDS011;10595;51.218;3.452;2023-07-13T02:08:43;23.30;;;5.30;;
20870;SDS011;10595;51.218;3.452;2023-07-13T02:11:09;16.83;;;4.90;;
20870;SDS011;10595;51.218;3.452;2023-07-13T02:13:35;21.13;;;5.37;;
20870;SDS011;10595;51.218;3.452;2023-07-13T02:16:01;23.23;;;5.77;;
20870;SDS011;10595;51.218;3.452;2023-07-13T02:18:27;21.20;;;5.50;;
20870;SDS011;10595;51.218;3.452;2023-07-13T02:20:53;23.67;;;5.77;;
20870;SDS011;10595;51.218;3.452;2023-07-13T02:23:19;19.43;;;5.93;;
20870;SDS011;10595;51.218;3.452;2023-07-13T02:25:45;19.37;;;5.30;;
20870;SDS011;10595;51.218;3.452;2023-07-13T02:28:11;17.27;;;5.57;;
20870;SDS011;10595;51.218;3.452;2023-07-13T02:30:37;20.60;;;5.67;;
20870;SDS011;10595;51.218;3.452;2023-07-13T02:33:04;24.03;;;5.97;;
20870;SDS011;10595;51.218;3.452;2023-07-13T02:35:30;15.60;;;5.67;;
20870;SDS011;10595;51.218;3.452;2023-07-13T02:37:56;17.17;;;6.17;;
20870;SDS011;10595;51.218;3.452;2023-07-13T02:40:22;14.90;;;4.93;;
20870;SDS011;10595;51.218;3.452;2023-07-13T02:42:48;21.53;;;5.77;;
20870;SDS011;10595;51.218;3.452;2023-07-13T02:45:14;16.27;;;5.10;;
20870;SDS011;10595;51.218;3.452;2023-07-13T02:47:41;19.10;;;5.20;;
20870;SDS011;10595;51.218;3.452;2023-07-13T02:50:07;20.37;;;6.30;;
20870;SDS011;10595;51.218;3.452;2023-07-13T02:52:33;27.27;;;5.70;;
20870;SDS011;10595;51.218;3.452;2023-07-13T02:54:59;18.70;;;6.60;;
20870;SDS011;10595;51.218;3.452;2023-07-13T02:57:25;25.80;;;6.43;;
20870;SDS011;10595;51.218;3.452;2023-07-13T02:59:53;20.23;;;5.23;;
20870;SDS011;10595;51.218;3.452;2023-07-13T03:02:19;19.47;;;6.13;;
20870;SDS011;10595;51.218;3.452;2023-07-13T03:04:45;23.03;;;5.20;;
20870;SDS011;10595;51.218;3.452;2023-07-13T03:07:11;22.07;;;6.03;;
20870;SDS011;10595;51.218;3.452;2023-07-13T03:09:39;23.13;;;5.30;;
20870;SDS011;10595;51.218;3.452;2023-07-13T03:12:05;20.93;;;6.33;;
20870;SDS011;10595;51.218;3.452;2023-07-13T03:14:31;18.07;;;5.87;;
20870;SDS011;10595;51.218;3.452;2023-07-13T03:16:57;19.30;;;4.73;;
20870;SDS011;10595;51.218;3.452;2023-07-13T03:19:23;22.77;;;5.97;;
20870;SDS011;10595;51.218;3.452;2023-07-13T03:21:49;20.80;;;5.13;;
20870;SDS011;10595;51.218;3.452;2023-07-13T03:24:16;24.27;;;5.27;;
20870;SDS011;10595;51.218;3.452;2023-07-13T03:26:42;18.63;;;5.53;;
20870;SDS011;10595;51.218;3.452;2023-07-13T03:29:08;21.90;;;5.13;;
20870;SDS011;10595;51.218;3.452;2023-07-13T03:31:34;19.93;;;5.63;;
20870;SDS011;10595;51.218;3.452;2023-07-13T03:34:01;20.13;;;5.17;;
20870;SDS011;10595;51.218;3.452;2023-07-13T03:36:28;21.37;;;6.10;;
20870;SDS011;10595;51.218;3.452;2023-07-13T03:38:56;20.07;;;5.60;;
20870;SDS011;10595;51.218;3.452;2023-07-13T03:41:23;17.10;;;5.60;;
20870;SDS011;10595;51.218;3.452;2023-07-13T03:43:49;22.20;;;5.60;;
20870;SDS011;10595;51.218;3.452;2023-07-13T03:46:16;20.10;;;6.57;;
20870;SDS011;10595;51.218;3.452;2023-07-13T03:48:43;22.93;;;6.40;;
20870;SDS011;10595;51.218;3.452;2023-07-13T03:51:09;20.77;;;6.03;;
20870;SDS011;10595;51.218;3.452;2023-07-13T03:53:37;23.43;;;6.47;;
20870;SDS011;10595;51.218;3.452;2023-07-13T03:56:04;19.03;;;6.70;;
20870;SDS011;10595;51.218;3.452;2023-07-13T03:58:34;21.60;;;7.67;;
20870;SDS011;10595;51.218;3.452;2023-07-13T04:01:01;21.80;;;6.47;;
20870;SDS011;10595;51.218;3.452;2023-07-13T04:03:27;21.83;;;6.43;;
20870;SDS011;10595;51.218;3.452;2023-07-13T04:05:54;24.07;;;6.87;;
20870;SDS011;10595;51.218;3.452;2023-07-13T04:08:24;21.20;;;6.90;;
20870;SDS011;10595;51.218;3.452;2023-07-13T04:10:50;20.07;;;6.37;;
20870;SDS011;10595;51.218;3.452;2023-07-13T04:13:16;25.47;;;6.10;;
20870;SDS011;10595;51.218;3.452;2023-07-13T04:15:42;23.07;;;6.43;;
20870;SDS011;10595;51.218;3.452;2023-07-13T04:18:08;30.50;;;7.60;;
20870;SDS011;10595;51.218;3.452;2023-07-13T04:20:34;25.53;;;6.37;;
20870;SDS011;10595;51.218;3.452;2023-07-13T04:23:00;19.97;;;6.50;;
20870;SDS011;10595;51.218;3.452;2023-07-13T04:25:27;21.83;;;6.20;;
20870;SDS011;10595;51.218;3.452;2023-07-13T04:27:53;21.93;;;5.90;;
20870;SDS011;10595;51.218;3.452;2023-07-13T04:30:19;19.53;;;7.00;;
20870;SDS011;10595;51.218;3.452;2023-07-13T04:32:45;22.63;;;6.10;;
20870;SDS011;10595;51.218;3.452;2023-07-13T04:35:11;21.37;;;6.60;;
20870;SDS011;10595;51.218;3.452;2023-07-13T04:37:39;20.80;;;5.83;;
20870;SDS011;10595;51.218;3.452;2023-07-13T04:40:05;28.07;;;6.50;;
20870;SDS011;10595;51.218;3.452;2023-07-13T04:42:31;16.87;;;6.00;;
20870;SDS011;10595;51.218;3.452;2023-07-13T04:44:59;21.70;;;6.30;;
20870;SDS011;10595;51.218;3.452;2023-07-13T04:47:25;22.57;;;5.97;;
20870;SDS011;10595;51.218;3.452;2023-07-13T04:49:51;24.97;;;6.67;;
20870;SDS011;10595;51.218;3.452;2023-07-13T04:52:17;15.70;;;5.67;;
20870;SDS011;10595;51.218;3.452;2023-07-13T04:54:44;22.77;;;6.30;;
20870;SDS011;10595;51.218;3.452;2023-07-13T04:57:10;26.30;;;6.53;;
20870;SDS011;10595;51.218;3.452;2023-07-13T04:59:36;24.50;;;6.67;;
20870;SDS011;10595;51.218;3.452;2023-07-13T05:02:02;18.80;;;6.33;;
20870;SDS011;10595;51.218;3.452;2023-07-13T05:04:28;20.90;;;6.07;;
20870;SDS011;10595;51.218;3.452;2023-07-13T05:06:54;17.80;;;5.97;;
20870;SDS011;10595;51.218;3.452;2023-07-13T05:09:20;19.87;;;6.53;;
20870;SDS011;10595;51.218;3.452;2023-07-13T05:11:46;18.03;;;6.13;;
20870;SDS011;10595;51.218;3.452;2023-07-13T05:14:12;21.87;;;6.87;;
20870;SDS011;10595;51.218;3.452;2023-07-13T05:16:38;14.73;;;5.80;;
20870;SDS011;10595;51.218;3.452;2023-07-13T05:19:04;23.80;;;6.23;;
20870;SDS011;10595;51.218;3.452;2023-07-13T05:21:30;18.60;;;6.23;;
20870;SDS011;10595;51.218;3.452;2023-07-13T05:23:56;20.47;;;6.93;;
20870;SDS011;10595;51.218;3.452;2023-07-13T05:26:22;18.23;;;5.93;;
20870;SDS011;10595;51.218;3.452;2023-07-13T05:28:48;21.17;;;6.43;;
20870;SDS011;10595;51.218;3.452;2023-07-13T05:31:14;20.17;;;5.83;;
20870;SDS011;10595;51.218;3.452;2023-07-13T05:33:40;21.73;;;6.37;;
20870;SDS011;10595;51.218;3.452;2023-07-13T05:36:06;19.97;;;5.90;;
20870;SDS011;10595;51.218;3.452;2023-07-13T05:38:32;18.20;;;6.17;;
20870;SDS011;10595;51.218;3.452;2023-07-13T05:40:58;17.00;;;5.67;;
20870;SDS011;10595;51.218;3.452;2023-07-13T05:43:24;21.53;;;6.40;;
20870;SDS011;10595;51.218;3.452;2023-07-13T05:45:52;19.40;;;6.00;;
20870;SDS011;10595;51.218;3.452;2023-07-13T05:48:18;12.43;;;5.37;;
20870;SDS011;10595;51.218;3.452;2023-07-13T05:50:44;18.77;;;5.43;;
20870;SDS011;10595;51.218;3.452;2023-07-13T05:53:11;17.67;;;5.57;;
20870;SDS011;10595;51.218;3.452;2023-07-13T05:55:41;23.73;;;6.23;;
20870;SDS011;10595;51.218;3.452;2023-07-13T05:58:07;20.20;;;6.07;;
20870;SDS011;10595;51.218;3.452;2023-07-13T06:00:34;15.40;;;6.40;;
20870;SDS011;10595;51.218;3.452;2023-07-13T06:03:00;21.80;;;6.13;;
20870;SDS011;10595;51.218;3.452;2023-07-13T06:05:26;19.73;;;5.77;;
20870;SDS011;10595;51.218;3.452;2023-07-13T06:07:53;16.80;;;5.40;;
20870;SDS011;10595;51.218;3.452;2023-07-13T06:10:20;15.47;;;5.50;;
20870;SDS011;10595;51.218;3.452;2023-07-13T06:12:46;24.10;;;6.13;;
20870;SDS011;10595;51.218;3.452;2023-07-13T06:15:12;22.50;;;6.23;;
20870;SDS011;10595;51.218;3.452;2023-07-13T06:17:38;24.97;;;5.40;;
20870;SDS011;10595;51.218;3.452;2023-07-13T06:20:04;19.10;;;5.40;;
20870;SDS011;10595;51.218;3.452;2023-07-13T06:22:30;16.53;;;5.40;;
20870;SDS011;10595;51.218;3.452;2023-07-13T06:24:56;20.87;;;5.33;;
20870;SDS011;10595;51.218;3.452;2023-07-13T06:27:22;15.57;;;4.57;;
20870;SDS011;10595;51.218;3.452;2023-07-13T06:29:48;16.63;;;4.77;;
20870;SDS011;10595;51.218;3.452;2023-07-13T06:32:14;16.97;;;5.10;;
20870;SDS011;10595;51.218;3.452;2023-07-13T06:34:40;14.23;;;4.50;;
20870;SDS011;10595;51.218;3.452;2023-07-13T06:37:06;16.97;;;5.10;;
20870;SDS011;10595;51.218;3.452;2023-07-13T06:39:32;16.27;;;4.63;;
20870;SDS011;10595;51.218;3.452;2023-07-13T06:41:58;19.20;;;4.57;;
20870;SDS011;10595;51.218;3.452;2023-07-13T06:44:24;10.47;;;4.20;;
20870;SDS011;10595;51.218;3.452;2023-07-13T06:46:50;18.47;;;4.73;;
20870;SDS011;10595;51.218;3.452;2023-07-13T06:49:16;20.67;;;4.77;;
20870;SDS011;10595;51.218;3.452;2023-07-13T06:51:42;13.27;;;4.60;;
20870;SDS011;10595;51.218;3.452;2023-07-13T06:54:08;22.30;;;5.47;;
20870;SDS011;10595;51.218;3.452;2023-07-13T06:56:34;15.23;;;5.33;;
20870;SDS011;10595;51.218;3.452;2023-07-13T06:59:00;16.03;;;5.30;;
20870;SDS011;10595;51.218;3.452;2023-07-13T07:01:26;11.47;;;4.10;;
20870;SDS011;10595;51.218;3.452;2023-07-13T07:03:52;14.38;;;4.80;;
20870;SDS011;10595;51.218;3.452;2023-07-13T07:06:20;17.17;;;4.53;;
20870;SDS011;10595;51.218;3.452;2023-07-13T07:08:48;14.30;;;4.20;;
20870;SDS011;10595;51.218;3.452;2023-07-13T07:11:17;15.73;;;4.87;;
20870;SDS011;10595;51.218;3.452;2023-07-13T07:13:44;17.53;;;4.47;;
20870;SDS011;10595;51.218;3.452;2023-07-13T07:16:10;14.70;;;4.30;;
20870;SDS011;10595;51.218;3.452;2023-07-13T07:18:36;19.13;;;5.10;;
20870;SDS011;10595;51.218;3.452;2023-07-13T07:21:02;11.80;;;4.30;;
20870;SDS011;10595;51.218;3.452;2023-07-13T07:23:28;12.90;;;4.03;;
20870;SDS011;10595;51.218;3.452;2023-07-13T07:25:54;16.03;;;4.57;;
20870;SDS011;10595;51.218;3.452;2023-07-13T07:28:20;12.33;;;3.43;;
20870;SDS011;10595;51.218;3.452;2023-07-13T07:30:46;11.13;;;3.30;;
20870;SDS011;10595;51.218;3.452;2023-07-13T07:33:13;11.83;;;3.53;;
20870;SDS011;10595;51.218;3.452;2023-07-13T07:35:39;8.57;;;3.20;;
20870;SDS011;10595;51.218;3.452;2023-07-13T07:38:05;11.70;;;3.87;;
20870;SDS011;10595;51.218;3.452;2023-07-13T07:40:31;13.00;;;4.00;;
20870;SDS011;10595;51.218;3.452;2023-07-13T07:42:58;11.33;;;3.40;;
20870;SDS011;10595;51.218;3.452;2023-07-13T07:45:24;9.57;;;3.20;;
20870;SDS011;10595;51.218;3.452;2023-07-13T07:47:50;8.47;;;3.20;;
20870;SDS011;10595;51.218;3.452;2023-07-13T07:50:16;9.17;;;3.07;;
20870;SDS011;10595;51.218;3.452;2023-07-13T07:52:42;8.60;;;2.90;;
20870;SDS011;10595;51.218;3.452;2023-07-13T07:55:09;6.80;;;2.57;;
20870;SDS011;10595;51.218;3.452;2023-07-13T07:57:35;11.93;;;3.10;;
20870;SDS011;10595;51.218;3.452;2023-07-13T08:00:01;5.17;;;2.67;;
20870;SDS011;10595;51.218;3.452;2023-07-13T08:02:27;10.23;;;2.80;;
20870;SDS011;10595;51.218;3.452;2023-07-13T08:04:53;7.97;;;2.70;;
20870;SDS011;10595;51.218;3.452;2023-07-13T08:07:19;9.87;;;3.30;;
20870;SDS011;10595;51.218;3.452;2023-07-13T08:09:45;8.13;;;3.00;;
20870;SDS011;10595;51.218;3.452;2023-07-13T08:12:12;12.20;;;3.63;;
20870;SDS011;10595;51.218;3.452;2023-07-13T08:14:38;12.47;;;3.17;;
20870;SDS011;10595;51.218;3.452;2023-07-13T08:17:04;11.00;;;3.00;;
20870;SDS011;10595;51.218;3.452;2023-07-13T08:19:30;6.67;;;2.83;;
20870;SDS011;10595;51.218;3.452;2023-07-13T08:21:56;7.37;;;2.77;;
20870;SDS011;10595;51.218;3.452;2023-07-13T08:24:23;8.43;;;2.60;;
20870;SDS011;10595;51.218;3.452;2023-07-13T08:26:50;9.80;;;3.13;;
20870;SDS011;10595;51.218;3.452;2023-07-13T08:29:17;7.10;;;2.60;;
20870;SDS011;10595;51.218;3.452;2023-07-13T08:31:43;7.13;;;2.40;;
20870;SDS011;10595;51.218;3.452;2023-07-13T08:34:10;6.80;;;2.90;;
20870;SDS011;10595;51.218;3.452;2023-07-13T08:36:36;7.40;;;2.80;;
20870;SDS011;10595;51.218;3.452;2023-07-13T08:39:02;11.30;;;3.20;;
20870;SDS011;10595;51.218;3.452;2023-07-13T08:41:28;6.00;;;2.60;;
20870;SDS011;10595;51.218;3.452;2023-07-13T08:43:56;9.63;;;2.73;;
20870;SDS011;10595;51.218;3.452;2023-07-13T08:48:51;5.23;;;2.63;;
20870;SDS011;10595;51.218;3.452;2023-07-13T08:53:51;9.17;;;3.10;;
20870;SDS011;10595;51.218;3.452;2023-07-13T08:56:27;10.40;;;3.73;;
20870;SDS011;10595;51.218;3.452;2023-07-13T09:04:21;7.37;;;3.20;;
20870;SDS011;10595;51.218;3.452;2023-07-13T09:09:25;8.60;;;3.30;;
20870;SDS011;10595;51.218;3.452;2023-07-13T09:12:17;8.97;;;2.80;;
20870;SDS011;10595;51.218;3.452;2023-07-13T09:14:48;11.87;;;3.13;;
20870;SDS011;10595;51.218;3.452;2023-07-13T09:17:18;10.43;;;3.00;;
20870;SDS011;10595;51.218;3.452;2023-07-13T09:19:46;8.03;;;2.60;;
20870;SDS011;10595;51.218;3.452;2023-07-13T09:22:14;5.00;;;2.37;;
20870;SDS011;10595;51.218;3.452;2023-07-13T09:24:45;6.27;;;2.50;;
20870;SDS011;10595;51.218;3.452;2023-07-13T09:27:33;5.50;;;3.20;;
20870;SDS011;10595;51.218;3.452;2023-07-13T09:32:36;10.73;;;4.53;;
20870;SDS011;10595;51.218;3.452;2023-07-13T09:35:07;15.17;;;4.90;;
20870;SDS011;10595;51.218;3.452;2023-07-13T09:37:34;8.20;;;4.87;;
20870;SDS011;10595;51.218;3.452;2023-07-13T09:40:01;12.33;;;5.40;;
20870;SDS011;10595;51.218;3.452;2023-07-13T09:42:30;11.20;;;4.47;;
20870;SDS011;10595;51.218;3.452;2023-07-13T09:44:58;12.00;;;4.83;;
20870;SDS011;10595;51.218;3.452;2023-07-13T09:47:39;9.87;;;4.90;;
20870;SDS011;10595;51.218;3.452;2023-07-13T09:50:15;9.10;;;4.67;;
20870;SDS011;10595;51.218;3.452;2023-07-13T09:52:48;11.40;;;5.30;;
20870;SDS011;10595;51.218;3.452;2023-07-13T09:57:47;9.00;;;4.80;;
20870;SDS011;10595;51.218;3.452;2023-07-13T10:00:19;9.13;;;5.00;;
20870;SDS011;10595;51.218;3.452;2023-07-13T10:02:46;9.90;;;4.77;;
20870;SDS011;10595;51.218;3.452;2023-07-13T10:05:13;10.53;;;5.30;;
20870;SDS011;10595;51.218;3.452;2023-07-13T10:07:44;9.53;;;5.57;;
20870;SDS011;10595;51.218;3.452;2023-07-13T10:10:15;9.67;;;5.47;;
20870;SDS011;10595;51.218;3.452;2023-07-13T10:12:42;11.80;;;5.67;;
20870;SDS011;10595;51.218;3.452;2023-07-13T10:15:13;11.13;;;6.50;;
20870;SDS011;10595;51.218;3.452;2023-07-13T10:17:41;10.90;;;5.57;;
20870;SDS011;10595;51.218;3.452;2023-07-13T10:20:08;11.10;;;4.90;;
20870;SDS011;10595;51.218;3.452;2023-07-13T10:22:41;12.37;;;4.37;;
20870;SDS011;10595;51.218;3.452;2023-07-13T10:25:19;6.77;;;2.67;;
20870;SDS011;10595;51.218;3.452;2023-07-13T10:27:47;4.67;;;2.60;;
20870;SDS011;10595;51.218;3.452;2023-07-13T10:30:20;3.53;;;2.00;;
20870;SDS011;10595;51.218;3.452;2023-07-13T10:32:48;4.33;;;2.20;;
20870;SDS011;10595;51.218;3.452;2023-07-13T10:35:15;6.87;;;2.50;;
20870;SDS011;10595;51.218;3.452;2023-07-13T10:38:00;9.30;;;2.80;;
20870;SDS011;10595;51.218;3.452;2023-07-13T10:41:14;6.67;;;2.53;;
20870;SDS011;10595;51.218;3.452;2023-07-13T10:43:44;6.17;;;2.33;;
20870;SDS011;10595;51.218;3.452;2023-07-13T10:46:08;8.27;;;2.73;;
20870;SDS011;10595;51.218;3.452;2023-07-13T10:48:35;4.20;;;2.00;;
20870;SDS011;10595;51.218;3.452;2023-07-13T10:51:03;4.40;;;2.20;;
20870;SDS011;10595;51.218;3.452;2023-07-13T10:53:35;7.13;;;2.00;;
20870;SDS011;10595;51.218;3.452;2023-07-13T10:56:04;4.67;;;2.03;;
20870;SDS011;10595;51.218;3.452;2023-07-13T10:58:39;4.03;;;2.00;;
20870;SDS011;10595;51.218;3.452;2023-07-13T11:03:32;3.83;;;1.70;;
20870;SDS011;10595;51.218;3.452;2023-07-13T11:23:44;7.63;;;2.10;;
20870;SDS011;10595;51.218;3.452;2023-07-13T11:28:55;3.40;;;1.90;;
20870;SDS011;10595;51.218;3.452;2023-07-13T11:31:21;3.40;;;1.70;;
20870;SDS011;10595;51.218;3.452;2023-07-13T11:33:52;5.67;;;1.83;;
20870;SDS011;10595;51.218;3.452;2023-07-13T11:36:19;7.80;;;2.10;;
20870;SDS011;10595;51.218;3.452;2023-07-13T11:39:11;5.23;;;2.00;;
20870;SDS011;10595;51.218;3.452;2023-07-13T11:41:46;8.07;;;2.30;;
20870;SDS011;10595;51.218;3.452;2023-07-13T11:44:15;6.47;;;2.30;;
20870;SDS011;10595;51.218;3.452;2023-07-13T11:46:49;8.43;;;2.43;;
20870;SDS011;10595;51.218;3.452;2023-07-13T11:49:19;3.37;;;1.73;;
20870;SDS011;10595;51.218;3.452;2023-07-13T11:51:46;4.83;;;1.90;;
20870;SDS011;10595;51.218;3.452;2023-07-13T11:54:30;5.20;;;2.00;;
20870;SDS011;10595;51.218;3.452;2023-07-13T11:57:01;4.83;;;2.50;;
20870;SDS011;10595;51.218;3.452;2023-07-13T11:59:29;4.20;;;2.00;;
20870;SDS011;10595;51.218;3.452;2023-07-13T12:01:56;4.07;;;2.57;;
20870;SDS011;10595;51.218;3.452;2023-07-13T12:04:27;6.80;;;2.60;;
20870;SDS011;10595;51.218;3.452;2023-07-13T12:09:32;4.30;;;2.20;;
20870;SDS011;10595;51.218;3.452;2023-07-13T12:12:01;6.57;;;2.30;;
20870;SDS011;10595;51.218;3.452;2023-07-13T12:14:27;5.53;;;2.20;;
20870;SDS011;10595;51.218;3.452;2023-07-13T12:16:53;5.10;;;2.27;;
20870;SDS011;10595;51.218;3.452;2023-07-13T12:19:20;3.50;;;2.37;;
20870;SDS011;10595;51.218;3.452;2023-07-13T12:21:46;5.33;;;2.30;;
20870;SDS011;10595;51.218;3.452;2023-07-13T12:24:16;5.63;;;2.00;;
20870;SDS011;10595;51.218;3.452;2023-07-13T12:26:43;7.83;;;2.10;;
20870;SDS011;10595;51.218;3.452;2023-07-13T12:29:14;7.53;;;2.17;;
20870;SDS011;10595;51.218;3.452;2023-07-13T12:31:42;3.90;;;1.83;;
20870;SDS011;10595;51.218;3.452;2023-07-13T12:34:16;7.27;;;2.00;;
20870;SDS011;10595;51.218;3.452;2023-07-13T12:36:47;5.30;;;2.13;;
20870;SDS011;10595;51.218;3.452;2023-07-13T12:39:22;7.07;;;2.23;;
20870;SDS011;10595;51.218;3.452;2023-07-13T12:41:49;7.33;;;2.67;;
20870;SDS011;10595;51.218;3.452;2023-07-13T12:44:16;7.77;;;2.27;;
20870;SDS011;10595;51.218;3.452;2023-07-13T12:46:52;5.33;;;2.70;;
20870;SDS011;10595;51.218;3.452;2023-07-13T12:49:18;9.90;;;2.00;;
20870;SDS011;10595;51.218;3.452;2023-07-13T12:51:49;7.57;;;2.30;;
20870;SDS011;10595;51.218;3.452;2023-07-13T12:54:17;6.80;;;2.07;;
20870;SDS011;10595;51.218;3.452;2023-07-13T12:56:44;5.47;;;2.13;;
20870;SDS011;10595;51.218;3.452;2023-07-13T12:59:15;8.93;;;2.47;;
20870;SDS011;10595;51.218;3.452;2023-07-13T13:01:42;8.23;;;2.30;;
20870;SDS011;10595;51.218;3.452;2023-07-13T13:04:08;6.90;;;1.77;;
20870;SDS011;10595;51.218;3.452;2023-07-13T13:06:37;8.50;;;2.23;;
20870;SDS011;10595;51.218;3.452;2023-07-13T13:09:06;6.85;;;2.35;;
20870;SDS011;10595;51.218;3.452;2023-07-13T13:11:35;7.90;;;2.30;;
20870;SDS011;10595;51.218;3.452;2023-07-13T13:14:01;8.52;;;2.38;;
20870;SDS011;10595;51.218;3.452;2023-07-13T13:16:29;5.95;;;1.95;;
20870;SDS011;10595;51.218;3.452;2023-07-13T13:19:01;5.30;;;2.17;;
20870;SDS011;10595;51.218;3.452;2023-07-13T13:21:29;6.70;;;2.47;;
20870;SDS011;10595;51.218;3.452;2023-07-13T13:23:57;7.53;;;2.63;;
20870;SDS011;10595;51.218;3.452;2023-07-13T13:26:24;6.88;;;2.67;;
20870;SDS011;10595;51.218;3.452;2023-07-13T13:28:51;7.83;;;3.10;;
20870;SDS011;10595;51.218;3.452;2023-07-13T13:31:17;7.28;;;2.30;;
20870;SDS011;10595;51.218;3.452;2023-07-13T13:33:44;5.90;;;1.97;;
20870;SDS011;10595;51.218;3.452;2023-07-13T13:36:20;9.57;;;2.30;;
20870;SDS011;10595;51.218;3.452;2023-07-13T13:38:47;6.47;;;1.85;;
20870;SDS011;10595;51.218;3.452;2023-07-13T13:41:14;4.60;;;2.00;;
20870;SDS011;10595;51.218;3.452;2023-07-13T13:43:41;6.07;;;2.20;;
20870;SDS011;10595;51.218;3.452;2023-07-13T13:46:25;7.68;;;2.03;;
20870;SDS011;10595;51.218;3.452;2023-07-13T13:48:53;9.13;;;2.13;;
20870;SDS011;10595;51.218;3.452;2023-07-13T13:51:21;4.40;;;1.70;;
20870;SDS011;10595;51.218;3.452;2023-07-13T13:53:48;7.63;;;2.00;;
20870;SDS011;10595;51.218;3.452;2023-07-13T13:56:15;5.80;;;2.00;;
20870;SDS011;10595;51.218;3.452;2023-07-13T13:58:43;9.40;;;2.40;;
20870;SDS011;10595;51.218;3.452;2023-07-13T14:01:12;7.40;;;2.33;;
20870;SDS011;10595;51.218;3.452;2023-07-13T14:03:39;8.67;;;2.20;;
20870;SDS011;10595;51.218;3.452;2023-07-13T14:06:07;5.07;;;2.10;;
20870;SDS011;10595;51.218;3.452;2023-07-13T14:08:33;3.93;;;2.00;;
20870;SDS011;10595;51.218;3.452;2023-07-13T14:10:59;4.57;;;1.60;;
20870;SDS011;10595;51.218;3.452;2023-07-13T14:13:39;6.33;;;2.00;;
20870;SDS011;10595;51.218;3.452;2023-07-13T14:16:15;5.50;;;2.20;;
20870;SDS011;10595;51.218;3.452;2023-07-13T14:18:42;6.90;;;1.60;;
20870;SDS011;10595;51.218;3.452;2023-07-13T14:21:28;5.40;;;1.83;;
20870;SDS011;10595;51.218;3.452;2023-07-13T14:23:54;3.85;;;1.77;;
20870;SDS011;10595;51.218;3.452;2023-07-13T14:26:21;7.97;;;1.77;;
20870;SDS011;10595;51.218;3.452;2023-07-13T14:28:49;3.90;;;2.05;;
20870;SDS011;10595;51.218;3.452;2023-07-13T14:31:15;3.58;;;1.70;;
20870;SDS011;10595;51.218;3.452;2023-07-13T14:33:42;3.33;;;1.38;;
20870;SDS011;10595;51.218;3.452;2023-07-13T14:38:40;4.97;;;1.17;;
20870;SDS011;10595;51.218;3.452;2023-07-13T14:41:07;4.43;;;1.50;;
20870;SDS011;10595;51.218;3.452;2023-07-13T14:43:33;2.75;;;1.20;;
20870;SDS011;10595;51.218;3.452;2023-07-13T14:45:59;2.33;;;1.20;;
20870;SDS011;10595;51.218;3.452;2023-07-13T14:48:25;3.50;;;1.40;;
20870;SDS011;10595;51.218;3.452;2023-07-13T14:50:53;4.55;;;1.63;;
20870;SDS011;10595;51.218;3.452;2023-07-13T14:53:19;5.22;;;1.73;;
20870;SDS011;10595;51.218;3.452;2023-07-13T14:55:45;3.10;;;1.50;;
20870;SDS011;10595;51.218;3.452;2023-07-13T14:58:11;3.50;;;1.50;;
20870;SDS011;10595;51.218;3.452;2023-07-13T15:00:38;3.28;;;1.30;;
20870;SDS011;10595;51.218;3.452;2023-07-13T15:03:05;3.85;;;1.58;;
20870;SDS011;10595;51.218;3.452;2023-07-13T15:05:34;3.80;;;1.40;;
20870;SDS011;10595;51.218;3.452;2023-07-13T15:08:00;3.65;;;1.50;;
20870;SDS011;10595;51.218;3.452;2023-07-13T15:10:31;5.22;;;1.52;;
20870;SDS011;10595;51.218;3.452;2023-07-13T15:13:01;4.85;;;2.55;;
20870;SDS011;10595;51.218;3.452;2023-07-13T15:15:38;5.50;;;1.93;;
20870;SDS011;10595;51.218;3.452;2023-07-13T15:18:05;5.27;;;1.60;;
20870;SDS011;10595;51.218;3.452;2023-07-13T15:20:32;3.30;;;1.50;;
20870;SDS011;10595;51.218;3.452;2023-07-13T15:23:00;8.88;;;1.98;;
20870;SDS011;10595;51.218;3.452;2023-07-13T15:25:27;6.10;;;1.77;;
20870;SDS011;10595;51.218;3.452;2023-07-13T15:27:53;5.93;;;1.87;;
20870;SDS011;10595;51.218;3.452;2023-07-13T15:30:20;6.87;;;1.83;;
20870;SDS011;10595;51.218;3.452;2023-07-13T15:32:46;3.05;;;1.55;;